createdAt,value
2019-03-27T00:00:50.491Z,5.65
2019-03-27T00:01:50.482Z,5.64
2019-03-27T00:02:50.479Z,5.64
2019-03-27T00:03:50.474Z,5.61
2019-03-27T00:04:50.456Z,5.67
2019-03-27T00:05:50.452Z,5.59
2019-03-27T00:06:50.443Z,5.69
2019-03-27T00:07:50.439Z,5.67
2019-03-27T00:08:50.427Z,5.61
2019-03-27T00:09:50.416Z,5.58
2019-03-27T00:10:50.411Z,5.7
2019-03-27T00:11:50.485Z,5.46
2019-03-27T00:12:50.412Z,5.38
2019-03-27T00:13:50.391Z,5.43
2019-03-27T00:14:50.522Z,5.29
2019-03-27T00:15:50.361Z,5.22
2019-03-27T00:16:50.358Z,5.18
2019-03-27T00:17:50.346Z,5.18
2019-03-27T00:18:50.349Z,5.12
2019-03-27T00:19:50.332Z,5.12
2019-03-27T00:20:50.329Z,5.07
2019-03-27T00:21:50.316Z,5.1
2019-03-27T00:22:50.314Z,5.02
2019-03-27T00:23:50.293Z,5.04
2019-03-27T00:24:50.290Z,4.98
2019-03-27T00:25:50.030Z,4.97
2019-03-27T00:26:50.269Z,4.92
2019-03-27T00:27:50.264Z,4.97
2019-03-27T00:28:50.251Z,4.98
2019-03-27T00:29:50.243Z,4.9
2019-03-27T00:30:50.339Z,4.94
2019-03-27T00:31:50.229Z,5.02
2019-03-27T00:32:50.324Z,5
2019-03-27T00:33:49.972Z,5
2019-03-27T00:34:50.320Z,5.05
2019-03-27T00:35:50.191Z,5.02
2019-03-27T00:36:50.183Z,5.1
2019-03-27T00:37:50.183Z,5.01
2019-03-27T00:38:50.162Z,5.1
2019-03-27T00:39:50.164Z,5.07
2019-03-27T00:40:50.169Z,5.2
2019-03-27T00:41:50.145Z,5.2
2019-03-27T00:42:50.136Z,5.22
2019-03-27T00:43:49.869Z,5.22
2019-03-27T00:44:50.114Z,5.18
2019-03-27T00:45:50.112Z,5.16
2019-03-27T00:46:50.140Z,5.08
2019-03-27T00:47:50.091Z,5.16
2019-03-27T00:48:50.082Z,5.1
2019-03-27T00:49:50.074Z,5.16
2019-03-27T00:50:49.824Z,5.19
2019-03-27T00:51:50.054Z,5.15
2019-03-27T00:52:50.075Z,5.2
2019-03-27T00:53:50.048Z,5.1
2019-03-27T00:54:50.027Z,5.2
2019-03-27T00:55:50.021Z,5.12
2019-03-27T00:56:50.092Z,5.1
2019-03-27T00:57:50.009Z,5.01
2019-03-27T00:58:49.994Z,5.02
2019-03-27T00:59:49.988Z,5.04
2019-03-27T01:00:50.028Z,5.01
2019-03-27T01:01:50.070Z,5.02
2019-03-27T01:02:50.035Z,5.04
2019-03-27T01:03:49.950Z,4.98
2019-03-27T01:04:49.945Z,5.02
2019-03-27T01:05:49.683Z,4.94
2019-03-27T01:06:53.212Z,4.97
2019-03-27T01:07:49.975Z,4.95
2019-03-27T01:08:49.669Z,4.94
2019-03-27T01:09:49.897Z,4.97
2019-03-27T01:10:49.899Z,4.97
2019-03-27T01:11:49.944Z,4.94
2019-03-27T01:12:49.876Z,4.9
2019-03-27T01:13:49.869Z,5.01
2019-03-27T01:14:49.860Z,4.94
2019-03-27T01:15:49.849Z,4.82
2019-03-27T01:16:49.838Z,4.76
2019-03-27T01:17:50.000Z,4.78
2019-03-27T01:18:49.821Z,4.75
2019-03-27T01:19:49.818Z,4.82
2019-03-27T01:20:49.808Z,4.74
2019-03-27T01:21:49.800Z,4.68
2019-03-27T01:22:49.791Z,4.78
2019-03-27T01:23:49.528Z,4.64
2019-03-27T01:24:49.775Z,4.61
2019-03-27T01:25:49.796Z,4.61
2019-03-27T01:26:49.756Z,4.58
2019-03-27T01:27:49.746Z,4.61
2019-03-27T01:28:49.742Z,4.58
2019-03-27T01:29:49.734Z,4.56
2019-03-27T01:30:49.718Z,4.61
2019-03-27T01:31:49.709Z,4.58
2019-03-27T01:32:49.705Z,4.53
2019-03-27T01:33:49.699Z,4.5
2019-03-27T01:34:49.689Z,4.46
2019-03-27T01:35:49.675Z,4.42
2019-03-27T01:36:49.672Z,4.34
2019-03-27T01:37:49.659Z,4.38
2019-03-27T01:38:49.726Z,4.38
2019-03-27T01:39:49.712Z,4.43
2019-03-27T01:40:49.630Z,4.36
2019-03-27T01:41:49.625Z,4.36
2019-03-27T01:42:49.629Z,4.4
2019-03-27T01:43:49.606Z,4.4
2019-03-27T01:44:49.597Z,4.21
2019-03-27T01:45:57.772Z,4.27
2019-03-27T01:46:49.583Z,4.18
2019-03-27T01:47:49.572Z,4.21
2019-03-27T01:48:49.710Z,4.22
2019-03-27T01:49:49.556Z,4.21
2019-03-27T01:50:49.547Z,4.18
2019-03-27T01:51:49.537Z,4.1
2019-03-27T01:52:49.538Z,4.09
2019-03-27T01:53:49.527Z,4.09
2019-03-27T01:54:49.511Z,4.1
2019-03-27T01:55:49.504Z,4.07
2019-03-27T01:56:49.536Z,4.09
2019-03-27T01:57:49.486Z,4.04
2019-03-27T01:58:49.227Z,4.02
2019-03-27T01:59:49.474Z,4.03
2019-03-27T02:00:49.455Z,4.02
2019-03-27T02:01:49.450Z,4.04
2019-03-27T02:02:49.450Z,4.03
2019-03-27T02:03:49.431Z,4.03
2019-03-27T02:04:49.427Z,4.02
2019-03-27T02:05:49.414Z,3.95
2019-03-27T02:06:49.408Z,4.06
2019-03-27T02:07:49.399Z,4.07
2019-03-27T02:08:49.387Z,4.06
2019-03-27T02:09:49.379Z,4.07
2019-03-27T02:10:49.370Z,4.13
2019-03-27T02:11:49.372Z,3.99
2019-03-27T02:12:49.354Z,3.92
2019-03-27T02:13:49.355Z,3.91
2019-03-27T02:14:49.337Z,3.92
2019-03-27T02:15:49.327Z,3.77
2019-03-27T02:16:49.321Z,3.78
2019-03-27T02:17:49.316Z,3.73
2019-03-27T02:18:49.305Z,3.63
2019-03-27T02:19:49.441Z,3.64
2019-03-27T02:20:49.285Z,3.64
2019-03-27T02:21:49.276Z,3.64
2019-03-27T02:22:49.266Z,3.78
2019-03-27T02:23:49.261Z,3.74
2019-03-27T02:24:49.249Z,3.76
2019-03-27T02:25:49.238Z,3.66
2019-03-27T02:26:49.230Z,3.68
2019-03-27T02:27:49.237Z,3.67
2019-03-27T02:28:49.300Z,3.63
2019-03-27T02:29:49.207Z,3.64
2019-03-27T02:30:49.207Z,3.68
2019-03-27T02:31:49.193Z,3.66
2019-03-27T02:32:48.935Z,3.7
2019-03-27T02:33:49.180Z,3.68
2019-03-27T02:34:49.171Z,3.76
2019-03-27T02:35:49.023Z,3.74
2019-03-27T02:36:49.174Z,3.74
2019-03-27T02:37:49.153Z,3.74
2019-03-27T02:38:49.152Z,3.78
2019-03-27T02:39:49.148Z,3.85
2019-03-27T02:40:49.111Z,3.85
2019-03-27T02:41:49.099Z,3.91
2019-03-27T02:42:49.097Z,3.82
2019-03-27T02:43:49.128Z,3.88
2019-03-27T02:44:49.095Z,3.86
2019-03-27T02:45:49.085Z,3.92
2019-03-27T02:46:49.069Z,3.94
2019-03-27T02:47:49.055Z,3.92
2019-03-27T02:48:49.069Z,3.99
2019-03-27T02:49:49.038Z,3.95
2019-03-27T02:50:49.024Z,3.99
2019-03-27T02:51:49.024Z,4.03
2019-03-27T02:52:49.009Z,4
2019-03-27T02:53:49.041Z,4.02
2019-03-27T02:54:48.760Z,4.04
2019-03-27T02:55:48.736Z,4.09
2019-03-27T02:56:48.970Z,4.09
2019-03-27T02:57:49.005Z,4.07
2019-03-27T02:58:48.959Z,4.06
2019-03-27T02:59:48.982Z,4.12
2019-03-27T03:00:48.945Z,4.1
2019-03-27T03:01:52.746Z,4.07
2019-03-27T03:02:48.949Z,4.13
2019-03-27T03:03:48.921Z,4.21
2019-03-27T03:04:48.659Z,4.18
2019-03-27T03:05:48.899Z,4.21
2019-03-27T03:06:48.893Z,4.24
2019-03-27T03:07:48.887Z,4.31
2019-03-27T03:08:48.890Z,4.34
2019-03-27T03:09:48.857Z,4.38
2019-03-27T03:10:50.814Z,4.39
2019-03-27T03:11:48.855Z,4.38
2019-03-27T03:12:48.836Z,4.3
2019-03-27T03:13:48.816Z,4.42
2019-03-27T03:14:48.814Z,4.52
2019-03-27T03:15:48.824Z,4.52
2019-03-27T03:16:48.587Z,4.46
2019-03-27T03:17:48.784Z,4.53
2019-03-27T03:18:48.898Z,4.57
2019-03-27T03:19:48.525Z,4.6
2019-03-27T03:20:48.766Z,4.57
2019-03-27T03:21:48.754Z,4.57
2019-03-27T03:22:48.738Z,4.68
2019-03-27T03:23:48.729Z,4.7
2019-03-27T03:24:48.744Z,4.71
2019-03-27T03:25:48.728Z,4.68
2019-03-27T03:26:53.179Z,4.64
2019-03-27T03:27:48.852Z,4.66
2019-03-27T03:28:48.714Z,4.53
2019-03-27T03:29:48.678Z,4.68
2019-03-27T03:30:48.775Z,4.56
2019-03-27T03:31:48.228Z,4.6
2019-03-27T03:32:48.711Z,4.56
2019-03-27T03:33:48.652Z,4.57
2019-03-27T03:34:48.746Z,4.53
2019-03-27T03:35:48.639Z,4.5
2019-03-27T03:36:48.620Z,4.49
2019-03-27T03:37:48.625Z,4.46
2019-03-27T03:38:48.601Z,4.52
2019-03-27T03:39:48.593Z,4.43
2019-03-27T03:40:48.349Z,4.45
2019-03-27T03:41:48.579Z,4.31
2019-03-27T03:42:48.575Z,4.39
2019-03-27T03:43:48.559Z,4.36
2019-03-27T03:44:48.554Z,4.34
2019-03-27T03:45:48.540Z,4.27
2019-03-27T03:47:03.666Z,4.22
2019-03-27T03:47:48.520Z,4.24
2019-03-27T03:48:48.536Z,4.22
2019-03-27T03:49:48.541Z,4.21
2019-03-27T03:50:48.713Z,4.22
2019-03-27T03:51:48.496Z,4.18
2019-03-27T03:52:50.746Z,4.07
2019-03-27T03:53:48.475Z,4.09
2019-03-27T03:54:48.469Z,4.14
2019-03-27T03:55:48.479Z,4.14
2019-03-27T03:56:48.444Z,4.1
2019-03-27T03:57:48.183Z,4.06
2019-03-27T03:58:48.423Z,4.06
2019-03-27T03:59:48.425Z,4.02
2019-03-27T04:00:48.427Z,4.03
2019-03-27T04:01:48.425Z,4.07
2019-03-27T04:02:48.385Z,3.99
2019-03-27T04:03:48.390Z,3.99
2019-03-27T04:04:48.376Z,3.95
2019-03-27T04:05:48.378Z,4
2019-03-27T04:06:48.376Z,3.92
2019-03-27T04:07:48.342Z,3.88
2019-03-27T04:08:48.639Z,3.89
2019-03-27T04:09:48.328Z,3.85
2019-03-27T04:10:48.321Z,3.81
2019-03-27T04:11:48.322Z,3.76
2019-03-27T04:12:48.308Z,3.86
2019-03-27T04:13:48.283Z,3.82
2019-03-27T04:14:48.326Z,3.78
2019-03-27T04:15:48.286Z,3.76
2019-03-27T04:16:48.258Z,3.85
2019-03-27T04:17:48.265Z,3.77
2019-03-27T04:18:48.296Z,3.86
2019-03-27T04:19:48.240Z,3.81
2019-03-27T04:20:48.236Z,3.89
2019-03-27T04:21:48.210Z,3.86
2019-03-27T04:22:48.238Z,3.78
2019-03-27T04:23:48.193Z,3.82
2019-03-27T04:24:48.260Z,3.77
2019-03-27T04:26:13.544Z,3.74
2019-03-27T04:26:48.178Z,3.82
2019-03-27T04:27:48.160Z,3.82
2019-03-27T04:28:48.164Z,3.85
2019-03-27T04:29:48.150Z,3.76
2019-03-27T04:30:48.137Z,3.78
2019-03-27T04:31:48.141Z,3.81
2019-03-27T04:32:48.141Z,3.86
2019-03-27T04:33:48.113Z,3.77
2019-03-27T04:34:51.864Z,3.84
2019-03-27T04:35:48.109Z,3.76
2019-03-27T04:36:48.090Z,3.76
2019-03-27T04:37:48.079Z,3.74
2019-03-27T04:38:48.069Z,3.76
2019-03-27T04:39:48.067Z,3.81
2019-03-27T04:40:48.051Z,3.77
2019-03-27T04:41:48.091Z,3.81
2019-03-27T04:42:48.024Z,3.73
2019-03-27T04:43:48.037Z,3.85
2019-03-27T04:44:48.013Z,3.73
2019-03-27T04:45:47.766Z,3.78
2019-03-27T04:46:47.993Z,3.86
2019-03-27T04:47:47.991Z,3.71
2019-03-27T04:48:47.994Z,3.81
2019-03-27T04:49:47.966Z,3.82
2019-03-27T04:50:47.954Z,3.76
2019-03-27T04:51:47.944Z,3.78
2019-03-27T04:52:47.945Z,3.92
2019-03-27T04:53:48.002Z,3.81
2019-03-27T04:54:47.919Z,3.74
2019-03-27T04:55:47.965Z,3.76
2019-03-27T04:56:47.908Z,3.7
2019-03-27T04:57:47.889Z,3.76
2019-03-27T04:58:47.891Z,3.76
2019-03-27T04:59:47.872Z,3.74
2019-03-27T05:00:47.868Z,3.78
2019-03-27T05:01:47.607Z,3.76
2019-03-27T05:02:47.850Z,3.78
2019-03-27T05:03:47.843Z,3.66
2019-03-27T05:04:47.831Z,3.68
2019-03-27T05:05:47.821Z,3.63
2019-03-27T05:06:47.570Z,3.74
2019-03-27T05:07:47.546Z,3.68
2019-03-27T05:08:47.790Z,3.67
2019-03-27T05:09:47.782Z,3.76
2019-03-27T05:10:47.773Z,3.71
2019-03-27T05:11:47.763Z,3.76
2019-03-27T05:12:47.755Z,3.73
2019-03-27T05:13:47.495Z,3.77
2019-03-27T05:14:47.737Z,3.78
2019-03-27T05:15:47.732Z,3.78
2019-03-27T05:16:47.722Z,3.73
2019-03-27T05:17:51.248Z,3.68
2019-03-27T05:18:47.706Z,3.71
2019-03-27T05:19:47.692Z,3.74
2019-03-27T05:20:47.681Z,3.78
2019-03-27T05:21:47.671Z,3.77
2019-03-27T05:22:47.662Z,3.76
2019-03-27T05:23:47.656Z,3.73
2019-03-27T05:24:47.728Z,3.84
2019-03-27T05:25:47.633Z,3.73
2019-03-27T05:26:47.832Z,3.81
2019-03-27T05:27:47.626Z,3.77
2019-03-27T05:28:47.609Z,3.76
2019-03-27T05:29:47.623Z,3.78
2019-03-27T05:30:47.591Z,3.77
2019-03-27T05:31:47.586Z,3.73
2019-03-27T05:32:47.575Z,3.73
2019-03-27T05:33:47.567Z,3.85
2019-03-27T05:34:47.559Z,3.81
2019-03-27T05:35:47.552Z,3.74
2019-03-27T05:36:47.535Z,3.7
2019-03-27T05:37:47.528Z,3.81
2019-03-27T05:38:47.523Z,3.82
2019-03-27T05:39:47.509Z,3.78
2019-03-27T05:40:47.498Z,3.89
2019-03-27T05:41:47.490Z,3.86
2019-03-27T05:42:59.934Z,3.88
2019-03-27T05:43:47.485Z,3.86
2019-03-27T05:44:47.462Z,3.82
2019-03-27T05:45:47.455Z,3.82
2019-03-27T05:46:47.446Z,3.81
2019-03-27T05:48:01.333Z,3.92
2019-03-27T05:48:47.427Z,3.94
2019-03-27T05:49:47.419Z,3.95
2019-03-27T05:50:47.470Z,3.88
2019-03-27T05:51:47.399Z,3.89
2019-03-27T05:52:47.390Z,3.95
2019-03-27T05:53:47.379Z,3.99
2019-03-27T05:54:47.374Z,3.95
2019-03-27T05:55:47.445Z,3.99
2019-03-27T05:56:47.350Z,3.91
2019-03-27T05:57:47.346Z,3.96
2019-03-27T05:58:47.333Z,3.99
2019-03-27T05:59:47.322Z,4.04
2019-03-27T06:00:47.316Z,3.92
2019-03-27T06:01:47.312Z,4.04
2019-03-27T06:02:47.296Z,3.99
2019-03-27T06:03:47.041Z,4.03
2019-03-27T06:04:47.275Z,4.03
2019-03-27T06:05:47.277Z,4.07
2019-03-27T06:06:47.258Z,4.07
2019-03-27T06:07:47.251Z,4.12
2019-03-27T06:08:47.236Z,4.12
2019-03-27T06:09:47.238Z,4.16
2019-03-27T06:10:47.236Z,4.22
2019-03-27T06:11:47.233Z,4.22
2019-03-27T06:12:47.201Z,4.28
2019-03-27T06:13:47.343Z,4.21
2019-03-27T06:14:47.185Z,4.34
2019-03-27T06:15:50.008Z,4.39
2019-03-27T06:16:47.169Z,4.42
2019-03-27T06:17:47.162Z,4.36
2019-03-27T06:18:47.152Z,4.49
2019-03-27T06:19:47.141Z,4.49
2019-03-27T06:20:47.259Z,4.48
2019-03-27T06:21:47.127Z,4.61
2019-03-27T06:22:47.114Z,4.53
2019-03-27T06:23:47.112Z,4.56
2019-03-27T06:24:47.096Z,4.56
2019-03-27T06:25:47.094Z,4.56
2019-03-27T06:26:47.075Z,4.45
2019-03-27T06:27:47.075Z,4.53
2019-03-27T06:28:47.055Z,4.58
2019-03-27T06:29:47.055Z,4.6
2019-03-27T06:30:47.044Z,4.61
2019-03-27T06:31:47.067Z,4.57
2019-03-27T06:32:47.024Z,4.7
2019-03-27T06:33:47.009Z,4.64
2019-03-27T06:34:46.747Z,4.74
2019-03-27T06:35:46.996Z,4.71
2019-03-27T06:36:46.985Z,4.64
2019-03-27T06:37:46.975Z,4.67
2019-03-27T06:38:46.970Z,4.67
2019-03-27T06:39:46.731Z,4.75
2019-03-27T06:40:46.950Z,4.68
2019-03-27T06:41:46.966Z,4.68
2019-03-27T06:42:46.933Z,4.68
2019-03-27T06:43:46.920Z,4.68
2019-03-27T06:44:47.212Z,4.74
2019-03-27T06:45:46.905Z,4.79
2019-03-27T06:46:46.925Z,4.75
2019-03-27T06:47:46.888Z,4.84
2019-03-27T06:48:46.910Z,4.94
2019-03-27T06:49:46.873Z,5.05
2019-03-27T06:50:46.860Z,5.05
2019-03-27T06:51:46.852Z,5.16
2019-03-27T06:52:46.858Z,5.19
2019-03-27T06:53:46.842Z,5.23
2019-03-27T06:54:46.834Z,5.29
2019-03-27T06:55:46.815Z,5.31
2019-03-27T06:56:46.832Z,5.38
2019-03-27T06:57:46.799Z,5.37
2019-03-27T06:58:59.131Z,5.4
2019-03-27T06:59:46.790Z,5.38
2019-03-27T07:00:46.926Z,5.43
2019-03-27T07:01:46.760Z,5.4
2019-03-27T07:02:46.751Z,5.4
2019-03-27T07:03:46.744Z,5.51
2019-03-27T07:04:46.732Z,5.51
2019-03-27T07:05:46.825Z,5.47
2019-03-27T07:06:46.717Z,5.49
2019-03-27T07:07:46.713Z,5.65
2019-03-27T07:08:46.703Z,5.67
2019-03-27T07:09:47.489Z,5.64
2019-03-27T07:10:46.679Z,5.73
2019-03-27T07:11:46.671Z,5.83
2019-03-27T07:12:46.697Z,5.88
2019-03-27T07:13:46.654Z,5.83
2019-03-27T07:14:46.654Z,5.83
2019-03-27T07:15:46.638Z,5.74
2019-03-27T07:16:46.625Z,5.8
2019-03-27T07:17:46.615Z,5.76
2019-03-27T07:18:46.606Z,5.74
2019-03-27T07:19:46.600Z,5.73
2019-03-27T07:20:46.589Z,5.76
2019-03-27T07:21:46.582Z,5.87
2019-03-27T07:22:46.328Z,5.88
2019-03-27T07:23:46.567Z,5.9
2019-03-27T07:24:46.309Z,5.94
2019-03-27T07:25:46.301Z,5.95
2019-03-27T07:26:46.291Z,6.05
2019-03-27T07:27:46.533Z,5.97
2019-03-27T07:28:46.522Z,5.91
2019-03-27T07:29:46.514Z,5.97
2019-03-27T07:30:46.508Z,6.01
2019-03-27T07:31:46.639Z,6.13
2019-03-27T07:32:46.482Z,6.15
2019-03-27T07:33:46.474Z,6.1
2019-03-27T07:34:46.462Z,6.02
2019-03-27T07:35:46.457Z,5.95
2019-03-27T07:36:46.445Z,5.99
2019-03-27T07:37:46.439Z,5.99
2019-03-27T07:38:46.439Z,6.02
2019-03-27T07:39:46.419Z,6.05
2019-03-27T07:40:46.413Z,6.12
2019-03-27T07:41:46.402Z,6.15
2019-03-27T07:42:46.393Z,6.26
2019-03-27T07:43:46.845Z,6.25
2019-03-27T07:44:46.380Z,6.29
2019-03-27T07:45:46.367Z,6.32
2019-03-27T07:46:46.355Z,6.54
2019-03-27T07:47:48.106Z,6.52
2019-03-27T07:48:58.695Z,6.54
2019-03-27T07:49:46.333Z,6.47
2019-03-27T07:50:46.332Z,6.62
2019-03-27T07:51:46.319Z,6.59
2019-03-27T07:52:46.308Z,6.68
2019-03-27T07:53:46.308Z,6.67
2019-03-27T07:54:46.287Z,6.62
2019-03-27T07:55:46.280Z,6.65
2019-03-27T07:56:46.270Z,6.59
2019-03-27T07:57:46.261Z,6.72
2019-03-27T07:58:46.266Z,6.74
2019-03-27T07:59:46.258Z,6.75
2019-03-27T08:00:46.244Z,6.77
2019-03-27T08:01:46.223Z,6.78
2019-03-27T08:02:46.219Z,6.96
2019-03-27T08:03:46.306Z,7.01
2019-03-27T08:04:46.204Z,7.05
2019-03-27T08:05:46.205Z,7.08
2019-03-27T08:06:46.181Z,7.21
2019-03-27T08:07:46.179Z,7.14
2019-03-27T08:08:46.168Z,7.14
2019-03-27T08:09:46.162Z,7.07
2019-03-27T08:10:46.150Z,7.19
2019-03-27T08:11:46.078Z,7.15
2019-03-27T08:12:46.210Z,7.14
2019-03-27T08:13:46.127Z,7.13
2019-03-27T08:14:46.115Z,7.1
2019-03-27T08:15:46.114Z,7.15
2019-03-27T08:16:46.099Z,7.15
2019-03-27T08:17:46.089Z,7.22
2019-03-27T08:18:46.129Z,7.28
2019-03-27T08:19:46.082Z,7.28
2019-03-27T08:20:46.069Z,7.26
2019-03-27T08:21:46.157Z,7.26
2019-03-27T08:22:46.061Z,7.22
2019-03-27T08:23:46.040Z,7.21
2019-03-27T08:24:46.036Z,7.25
2019-03-27T08:25:46.016Z,7.22
2019-03-27T08:26:46.014Z,7.29
2019-03-27T08:27:46.003Z,7.32
2019-03-27T08:28:45.998Z,7.32
2019-03-27T08:29:45.982Z,7.31
2019-03-27T08:30:46.023Z,7.22
2019-03-27T08:31:45.967Z,7.14
2019-03-27T08:32:45.962Z,7.31
2019-03-27T08:33:45.951Z,7.36
2019-03-27T08:34:45.945Z,7.28
2019-03-27T08:35:45.690Z,7.36
2019-03-27T08:36:45.944Z,7.46
2019-03-27T08:37:45.920Z,7.62
2019-03-27T08:38:45.950Z,7.8
2019-03-27T08:39:45.899Z,7.98
2019-03-27T08:40:45.892Z,8.05
2019-03-27T08:41:45.883Z,8.05
2019-03-27T08:42:45.872Z,7.98
2019-03-27T08:43:45.862Z,8.05
2019-03-27T08:44:45.857Z,8.09
2019-03-27T08:45:45.847Z,8.17
2019-03-27T08:46:45.847Z,8.18
2019-03-27T08:47:45.836Z,8.21
2019-03-27T08:48:45.826Z,8.21
2019-03-27T08:49:45.813Z,8.2
2019-03-27T08:50:45.803Z,8.21
2019-03-27T08:51:45.823Z,8.27
2019-03-27T08:52:45.538Z,8.27
2019-03-27T08:53:45.533Z,8.24
2019-03-27T08:54:45.781Z,8.13
2019-03-27T08:55:45.773Z,8.2
2019-03-27T08:56:45.756Z,8.32
2019-03-27T08:57:45.749Z,8.31
2019-03-27T08:58:45.740Z,8.49
2019-03-27T08:59:45.734Z,8.57
2019-03-27T09:00:45.727Z,8.66
2019-03-27T09:01:45.749Z,8.72
2019-03-27T09:02:45.719Z,8.79
2019-03-27T09:03:45.699Z,8.84
2019-03-27T09:04:45.689Z,8.79
2019-03-27T09:05:45.677Z,-40
2019-03-27T09:06:45.686Z,-39.99
2019-03-27T09:07:45.746Z,-39.99
2019-03-27T09:08:45.657Z,-39.99
2019-03-27T09:09:45.643Z,-39.99
2019-03-27T09:10:45.643Z,-39.99
2019-03-27T09:11:45.632Z,-39.99
2019-03-27T09:12:45.620Z,-39.99
2019-03-27T09:13:45.612Z,-39.99
2019-03-27T09:14:45.606Z,-39.99
2019-03-27T09:15:45.594Z,-39.99
2019-03-27T09:16:45.595Z,-39.99
2019-03-27T09:17:45.579Z,-39.99
2019-03-27T09:18:45.588Z,-39.99
2019-03-27T09:19:45.565Z,-39.99
2019-03-27T09:20:45.715Z,-39.99
2019-03-27T09:21:45.555Z,-39.99
2019-03-27T09:22:45.561Z,-39.99
2019-03-27T09:23:48.335Z,-39.99
2019-03-27T09:24:45.522Z,-39.99
2019-03-27T09:25:45.513Z,-39.99
2019-03-27T09:26:45.503Z,-39.99
2019-03-27T09:27:45.494Z,-39.99
2019-03-27T09:28:45.488Z,-39.99
2019-03-27T09:29:45.792Z,-39.99
2019-03-27T09:30:45.478Z,-39.99
2019-03-27T09:31:50.072Z,-39.99
2019-03-27T09:32:45.456Z,-39.99
2019-03-27T09:33:45.446Z,-39.99
2019-03-27T09:34:45.431Z,-39.99
2019-03-27T09:35:45.442Z,-39.99
2019-03-27T09:36:45.425Z,-39.99
2019-03-27T09:37:45.413Z,-39.99
2019-03-27T09:38:45.404Z,-39.99
2019-03-27T09:39:45.400Z,-39.99
2019-03-27T09:40:45.393Z,-39.99
2019-03-27T09:41:45.380Z,-39.99
2019-03-27T09:42:45.385Z,-39.99
2019-03-27T09:43:45.391Z,-39.99
2019-03-27T09:44:45.355Z,-39.99
2019-03-27T09:45:45.344Z,-39.99
2019-03-27T09:46:45.339Z,-39.99
2019-03-27T09:47:45.328Z,-39.99
2019-03-27T09:48:45.323Z,-39.99
2019-03-27T09:49:54.227Z,-39.99
2019-03-27T09:50:45.301Z,-39.99
2019-03-27T09:51:45.044Z,-39.99
2019-03-27T09:52:45.382Z,-39.99
2019-03-27T09:53:45.279Z,-39.99
2019-03-27T09:54:45.274Z,-39.99
2019-03-27T09:55:45.266Z,-39.99
2019-03-27T09:56:45.259Z,-39.99
2019-03-27T09:57:45.318Z,-39.99
2019-03-27T09:58:45.239Z,-39.99
2019-03-27T09:59:45.229Z,-39.99
2019-03-27T10:00:45.239Z,-39.99
2019-03-27T10:01:45.215Z,-39.99
2019-03-27T10:02:45.209Z,-39.99
2019-03-27T10:03:45.194Z,-39.99
2019-03-27T10:04:45.257Z,-39.99
2019-03-27T10:05:45.176Z,-39.99
2019-03-27T10:06:45.166Z,-39.99
2019-03-27T10:07:45.315Z,-39.99
2019-03-27T10:08:44.905Z,-39.99
2019-03-27T10:09:45.148Z,-39.99
2019-03-27T10:10:45.144Z,-39.99
2019-03-27T10:11:45.201Z,-39.99
2019-03-27T10:12:45.121Z,-39.99
2019-03-27T10:13:45.114Z,-39.99
2019-03-27T10:14:47.479Z,-39.99
2019-03-27T10:15:45.100Z,-39.99
2019-03-27T10:16:45.090Z,-39.99
2019-03-27T10:17:45.091Z,-39.99
2019-03-27T10:18:47.408Z,-39.99
2019-03-27T10:19:45.073Z,-39.99
2019-03-27T10:20:45.058Z,-39.99
2019-03-27T10:21:45.057Z,-39.99
2019-03-27T10:22:45.041Z,-39.99
2019-03-27T10:23:45.040Z,-39.99
2019-03-27T10:24:45.026Z,-39.99
2019-03-27T10:25:45.014Z,-39.99
2019-03-27T10:26:47.621Z,-39.99
2019-03-27T10:27:44.747Z,-39.99
2019-03-27T10:28:45.006Z,-39.99
2019-03-27T10:29:44.989Z,-39.99
2019-03-27T10:30:44.982Z,-39.99
2019-03-27T10:31:44.975Z,-39.99
2019-03-27T10:32:44.966Z,-39.99
2019-03-27T10:33:44.746Z,-39.99
2019-03-27T10:34:44.942Z,-39.99
2019-03-27T10:35:44.933Z,-39.99
2019-03-27T10:36:44.937Z,-39.99
2019-03-27T10:37:44.929Z,-39.99
2019-03-27T10:38:46.685Z,-39.99
2019-03-27T10:39:44.916Z,-39.99
2019-03-27T10:40:44.895Z,-39.99
2019-03-27T10:41:44.887Z,-39.99
2019-03-27T10:42:44.881Z,-39.99
2019-03-27T10:43:44.872Z,-39.99
2019-03-27T10:44:44.862Z,-39.99
2019-03-27T10:45:44.856Z,-39.99
2019-03-27T10:46:44.847Z,-39.99
2019-03-27T10:47:44.836Z,-39.99
2019-03-27T10:48:57.272Z,-39.99
2019-03-27T10:49:44.827Z,-39.99
2019-03-27T10:50:44.816Z,-39.99
2019-03-27T10:51:44.813Z,-39.99
2019-03-27T10:52:44.805Z,-39.99
2019-03-27T10:53:44.791Z,-39.99
2019-03-27T10:54:44.934Z,-39.99
2019-03-27T10:55:44.777Z,-39.99
2019-03-27T10:56:44.853Z,-39.99
2019-03-27T10:57:44.769Z,-39.99
2019-03-27T10:58:44.824Z,-39.99
2019-03-27T10:59:44.745Z,-39.99
2019-03-27T11:00:44.736Z,-39.99
2019-03-27T11:01:44.726Z,-39.99
2019-03-27T11:02:44.721Z,-39.99
2019-03-27T11:03:44.710Z,-39.99
2019-03-27T11:04:44.705Z,-39.99
2019-03-27T11:05:44.700Z,-39.99
2019-03-27T11:06:44.691Z,-39.99
2019-03-27T11:07:44.440Z,-39.99
2019-03-27T11:08:44.679Z,-39.99
2019-03-27T11:09:44.668Z,-39.99
2019-03-27T11:10:44.686Z,-39.99
2019-03-27T11:11:44.656Z,-39.99
2019-03-27T11:12:44.643Z,-39.99
2019-03-27T11:13:44.689Z,-39.99
2019-03-27T11:14:44.631Z,-39.99
2019-03-27T11:15:44.618Z,-39.99
2019-03-27T11:16:44.611Z,-39.99
2019-03-27T11:17:44.673Z,-39.99
2019-03-27T11:18:44.615Z,-39.99
2019-03-27T11:19:44.578Z,-39.99
2019-03-27T11:20:44.576Z,-39.99
2019-03-27T11:21:44.566Z,-39.99
2019-03-27T11:22:44.564Z,-39.99
2019-03-27T11:23:44.549Z,-39.99
2019-03-27T11:24:44.543Z,-39.99
2019-03-27T11:25:44.894Z,-39.99
2019-03-27T11:26:44.276Z,-39.99
2019-03-27T11:27:44.517Z,-39.99
2019-03-27T11:28:44.505Z,-39.99
2019-03-27T11:29:44.500Z,-39.99
2019-03-27T11:30:48.105Z,-39.99
2019-03-27T11:31:44.485Z,-39.99
2019-03-27T11:32:44.486Z,-39.99
2019-03-27T11:33:44.472Z,-39.99
2019-03-27T11:34:44.468Z,-39.99
2019-03-27T11:35:44.455Z,-39.99
2019-03-27T11:36:44.487Z,-39.99
2019-03-27T11:37:44.440Z,-39.99
2019-03-27T11:38:44.429Z,-39.99
2019-03-27T11:39:44.424Z,-39.99
2019-03-27T11:40:44.418Z,-39.99
2019-03-27T11:41:44.405Z,-39.99
2019-03-27T11:42:44.400Z,-39.99
2019-03-27T11:43:57.231Z,-39.99
2019-03-27T11:44:44.398Z,-39.99
2019-03-27T11:45:44.374Z,-39.99
2019-03-27T11:46:44.373Z,-39.99
2019-03-27T11:47:44.382Z,-39.99
2019-03-27T11:48:44.370Z,-39.99
2019-03-27T11:49:44.354Z,-39.99
2019-03-27T11:50:50.179Z,-39.99
2019-03-27T11:51:44.326Z,-39.99
2019-03-27T11:52:44.321Z,-39.99
2019-03-27T11:53:44.085Z,-39.99
2019-03-27T11:54:44.379Z,-39.99
2019-03-27T11:55:44.298Z,-39.99
2019-03-27T11:56:44.288Z,-39.99
2019-03-27T11:57:44.281Z,-39.99
2019-03-27T11:58:44.278Z,-39.99
2019-03-27T11:59:58.007Z,-39.99
2019-03-27T12:00:58.532Z,-39.99
2019-03-27T12:01:48.393Z,-39.99
2019-03-27T12:02:44.243Z,-39.99
2019-03-27T12:03:44.233Z,-39.99
2019-03-27T12:04:44.229Z,-39.99
2019-03-27T12:05:45.665Z,-39.99
2019-03-27T12:06:44.213Z,-39.99
2019-03-27T12:07:44.301Z,-39.99
2019-03-27T12:08:44.192Z,-39.99
2019-03-27T12:09:44.192Z,-39.99
2019-03-27T12:10:44.182Z,-39.99
2019-03-27T12:11:44.178Z,-39.99
2019-03-27T12:12:43.931Z,-39.99
2019-03-27T12:13:44.165Z,-39.99
2019-03-27T12:14:44.154Z,-39.99
2019-03-27T12:15:44.155Z,-39.99
2019-03-27T12:16:44.132Z,-39.99
2019-03-27T12:17:44.131Z,-39.99
2019-03-27T12:18:44.121Z,-39.99
2019-03-27T12:19:44.133Z,-39.99
2019-03-27T12:20:57.676Z,-39.99
2019-03-27T12:21:44.092Z,-39.99
2019-03-27T12:22:56.895Z,-39.99
2019-03-27T12:23:44.080Z,-39.99
2019-03-27T12:24:44.072Z,-39.99
2019-03-27T12:25:44.062Z,-39.99
2019-03-27T12:26:44.163Z,-39.99
2019-03-27T12:27:44.054Z,-39.99
2019-03-27T12:28:44.044Z,-39.99
2019-03-27T12:29:44.037Z,-39.99
2019-03-27T12:30:44.022Z,-39.99
2019-03-27T12:31:44.021Z,-39.99
2019-03-27T12:32:44.016Z,-39.99
2019-03-27T12:33:44.009Z,-39.99
2019-03-27T12:34:43.996Z,-39.99
2019-03-27T12:35:43.986Z,-39.99
2019-03-27T12:36:43.986Z,-39.99
2019-03-27T12:37:43.971Z,-39.99
2019-03-27T12:38:44.005Z,-39.99
2019-03-27T12:39:45.664Z,-39.99
2019-03-27T12:40:43.943Z,-39.99
2019-03-27T12:41:43.939Z,-39.99
2019-03-27T12:42:43.939Z,-39.99
2019-03-27T12:43:43.936Z,-39.99
2019-03-27T12:44:43.925Z,-39.99
2019-03-27T12:45:43.914Z,-39.99
2019-03-27T12:46:43.646Z,-39.99
2019-03-27T12:47:43.641Z,-39.99
2019-03-27T12:48:43.878Z,-39.99
2019-03-27T12:49:43.877Z,-39.99
2019-03-27T12:50:46.730Z,-39.99
2019-03-27T12:51:43.858Z,-39.99
2019-03-27T12:52:43.853Z,-39.99
2019-03-27T12:53:43.847Z,-39.99
2019-03-27T12:54:43.893Z,-39.99
2019-03-27T12:55:43.838Z,-39.99
2019-03-27T12:56:43.825Z,-39.99
2019-03-27T12:57:43.868Z,-39.99
2019-03-27T12:58:43.816Z,-39.99
2019-03-27T12:59:43.803Z,-39.99
2019-03-27T13:00:43.794Z,-39.99
2019-03-27T13:01:43.781Z,-39.99
2019-03-27T13:02:43.779Z,-39.99
2019-03-27T13:03:46.815Z,-39.99
2019-03-27T13:04:43.763Z,-39.99